x

Cape Suckling - 35 Nm Se Of Kayak Is, Ak (46082) Wave Buoy

9:50pm - Mon 30th Mar 2015 All times are AKDT. -8 hours from GMT.

  • Sig Wave height 7.5ft
  • Peak Period 10s
  • Average Period 7s
  • Wind
    4mph, 7mph gusts
  • Air Temp 42°f
  • Sea Pressure 999.2mb
  • Cape Suckling - 35 Nm Se Of Kayak Is, Ak
  • Cape Suckling - 35 Nm Se Of Kayak Is, Ak

More Historic Weather Station data

Upgrade to MSW Pro to gain access to the past 30 days of data for over 8000 Wavebouys and Weather Stations around the globe.

Join Pro

Comparision Forecast

View Surf forecast
   
Mon 03/30 9:50pm 7.5ft 10s 7s 4 7 mph 999.2mb 42f
8:50pm 8ft 11s 7s 4 7 mph 999.4mb 43f
7:50pm 8ft 12s 6s 9 11 mph 999.7mb 43f
6:50pm 8.5ft 12s 7s 13 16 mph 1000.1mb 43f
5:50pm 9ft 11s 6s 18 20 mph 1000.5mb 43f
4:50pm 10.5ft 11s 7s 18 22 mph 1001.2mb 43f
3:50pm 11ft 11s 6s 22 25 mph 1001.7mb 42f
2:50pm 10ft 11s 6s 22 27 mph 1002mb 42f
1:50pm 10ft 10s 6s 25 29 mph 1002.4mb 42f
12:50pm 10ft 12s 7s 25 29 mph 1002.8mb 41f
11:50am 10ft 12s 7s 18 22 mph 1003.3mb 40f
10:50am 9ft 11s 6s 20 25 mph 1003.8mb 40f
9:50am 10ft 12s 7s 16 20 mph 1003.9mb 41f
8:50am 9ft 11s 6s 16 20 mph 1004.2mb 40f
7:50am 10ft 11s 7s 20 25 mph 1004.2mb 42f
6:50am 10ft 11s 7s 22 27 mph 1004.8mb 41f
5:50am 10ft 11s 7s 20 25 mph 1005.1mb 41f
4:50am 9ft 11s 7s 13 16 mph 1005.5mb 43f
3:50am 10ft 11s 7s 13 16 mph 1006mb 43f
2:50am 11ft 11s 7s 13 20 mph 1006mb 43f
1:50am 11ft 11s 8s 16 20 mph 1005.7mb 43f
12:50am 9.5ft 11s 7s 18 22 mph 1005.2mb 43f
Sun 03/29 11:50pm 9.5ft 13s 7s 18 22 mph 1004.9mb 43f
10:50pm 12ft 12s 8s 16 20 mph 1004.7mb 43f
9:50pm 11.5ft 11s 8s 16 20 mph 1004.5mb 43f
8:50pm 11ft 11s 7s 16 20 mph 1004mb 43f
7:50pm 10.5ft 12s 7s 16 18 mph 1003.5mb 43f
6:50pm 13ft 12s 8s 16 18 mph 1003mb 43f
5:50pm 11.5ft 12s 7s 16 20 mph 1002.7mb 43f
4:50pm 12.5ft 13s 7s 16 20 mph 1002.5mb 43f
3:50pm 11.5ft 12s 7s 22 27 mph 1002.1mb 42f
2:50pm 11.5ft 12s 7s 20 25 mph 1001.7mb 42f
1:50pm 11.5ft 12s 7s 20 25 mph 1001mb 44f
12:50pm 11ft 12s 7s 18 22 mph 1000.5mb 44f
11:50am 11ft 10s 7s 18 22 mph 999.9mb 44f
10:50am 11ft 12s 7s 20 25 mph 999.2mb 44f
9:50am 11ft 13s 7s 18 22 mph 998.7mb 43f
8:50am 13.5ft 12s 8s 18 22 mph 998mb 43f
7:50am 13.5ft 12s 8s 20 25 mph 997.5mb 43f
6:50am 14.5ft 12s 8s 22 27 mph 997mb 43f
5:50am 13.5ft 14s 8s 20 25 mph 996.6mb 44f
4:50am 13ft 10s 8s 18 20 mph 996.3mb 43f
3:50am 14ft 11s 8s 18 25 mph 995.9mb 44f
2:50am 14ft 11s 7s 16 20 mph 995.3mb 44f
1:50am 14ft 10s 7s 29 36 mph 994.6mb 42f
12:50am 15.5ft 11s 7s 36 43 mph 994.3mb 40f
Sat 03/28 11:50pm 15ft 11s 7s 34 40 mph 993.9mb 41f
10:50pm 16ft 11s 7s 34 40 mph 993.7mb 42f
9:50pm 14.5ft 11s 7s 34 40 mph 993.5mb 42f
8:50pm 13ft 11s 6s 36 43 mph 993.4mb 42f
7:50pm 13.5ft 11s 7s 34 40 mph 993.4mb 42f
6:50pm 14.5ft 10s 7s 29 40 mph 994mb 44f
5:50pm 14ft 10s 7s 27 36 mph 994.6mb 45f
4:50pm 14.5ft 11s 7s 25 31 mph 995.7mb 45f
3:50pm 13ft 11s 7s 25 27 mph 996.7mb 45f
2:50pm 13ft 10s 7s 27 31 mph 998mb 45f
1:50pm 12ft 10s 6s 27 31 mph 999.1mb 44f
12:50pm 11.5ft 6s 6s 29 36 mph 1000mb 44f
11:50am 10ft 6s 6s 29 36 mph 1000.6mb 43f
10:50am 10ft 7s 6s 31 36 mph 1001.1mb 43f
9:50am 10ft 6s 6s 29 38 mph 1001.8mb 42f
8:50am 10ft 6s 5s 31 38 mph 1002.2mb 42f
7:50am 9ft 11s 6s 29 36 mph 1002.6mb 41f
6:50am 9.5ft 11s 5s 29 34 mph 1002.7mb 42f
5:50am 10ft 11s 6s 25 29 mph 1003.3mb 42f
4:50am 10ft 11s 6s 29 36 mph 1004mb 41f
3:50am 9.5ft 11s 6s 29 38 mph 1004.4mb 41f
2:50am 8.5ft 11s 6s 25 29 mph 1005mb 43f
1:50am 8ft 11s 6s 22 25 mph 1005.3mb 43f
12:50am 9ft 9s 6s 20 25 mph 1005.7mb 43f
Fri 03/27 11:50pm 7.5ft 10s 6s 20 25 mph 1006mb 42f
10:50pm 7.5ft 10s 6s 20 22 mph 1005.9mb 42f
9:50pm 8ft 10s 6s 22 27 mph 1006mb 41f
8:50pm 9ft 11s 6s 25 29 mph 1005.6mb 42f
7:50pm 8.5ft 9s 6s 27 31 mph 1005.7mb 42f
6:50pm 9ft 11s 6s 25 34 mph 1006mb 42f
5:50pm 9ft 11s 6s 20 27 mph 1006.3mb 42f
4:50pm 9ft 11s 7s 22 27 mph 1006.7mb 40f
3:50pm 9.5ft 9s 6s 16 18 mph 1007.1mb 43f
2:50pm 9.5ft 11s 7s 16 20 mph 1007.5mb 43f
1:50pm 10ft 10s 7s 13 18 mph 1007.7mb 43f
12:50pm 11ft 11s 8s 13 18 mph 1007.7mb 43f
11:50am 10ft 11s 7s 13 18 mph 1007.6mb 43f
10:50am 10ft 11s 7s 11 13 mph 1007.5mb 42f
9:50am 9.5ft 10s 8s 13 16 mph 1007.3mb 43f
8:50am 11ft 11s 8s 11 16 mph 1007.2mb 42f
7:50am 10ft 11s 7s 11 16 mph 1006.9mb 42f
6:50am 9.5ft 11s 7s 7 9 mph 1006.9mb 42f